sensor_id;sensor_type;location;lat;lon;timestamp;temperature;humidity
13205;DHT22;6667;52.634;9.226;2023-10-19T07:06:07;7.30;99.90
13205;DHT22;6667;52.634;9.226;2023-10-19T07:08:39;7.30;99.90
13205;DHT22;6667;52.634;9.226;2023-10-19T07:11:06;7.30;99.90
13205;DHT22;6667;52.634;9.226;2023-10-19T07:13:34;7.30;99.90
13205;DHT22;6667;52.634;9.226;2023-10-19T07:16:01;7.30;99.90
13205;DHT22;6667;52.634;9.226;2023-10-19T07:18:28;7.30;99.90
13205;DHT22;6667;52.634;9.226;2023-10-19T07:20:55;7.30;99.90
13205;DHT22;6667;52.634;9.226;2023-10-19T07:23:29;7.30;99.90
13205;DHT22;6667;52.634;9.226;2023-10-19T07:25:56;7.30;99.90
13205;DHT22;6667;52.634;9.226;2023-10-19T07:28:25;7.30;99.90
13205;DHT22;6667;52.634;9.226;2023-10-19T07:30:53;7.30;99.90
13205;DHT22;6667;52.634;9.226;2023-10-19T07:33:19;7.30;99.90
13205;DHT22;6667;52.634;9.226;2023-10-19T07:35:47;7.40;99.90
13205;DHT22;6667;52.634;9.226;2023-10-19T07:38:18;7.40;99.90
13205;DHT22;6667;52.634;9.226;2023-10-19T07:40:48;7.30;99.90
13205;DHT22;6667;52.634;9.226;2023-10-19T07:43:18;7.40;99.90
13205;DHT22;6667;52.634;9.226;2023-10-19T07:45:45;7.40;99.90
13205;DHT22;6667;52.634;9.226;2023-10-19T07:48:13;7.40;99.90
13205;DHT22;6667;52.634;9.226;2023-10-19T07:50:40;7.40;99.90
13205;DHT22;6667;52.634;9.226;2023-10-19T07:53:08;7.40;99.90
13205;DHT22;6667;52.634;9.226;2023-10-19T07:55:35;7.50;99.90
13205;DHT22;6667;52.634;9.226;2023-10-19T07:58:04;7.50;99.90
13205;DHT22;6667;52.634;9.226;2023-10-19T08:00:32;7.50;99.90
13205;DHT22;6667;52.634;9.226;2023-10-19T08:03:00;7.50;99.90
13205;DHT22;6667;52.634;9.226;2023-10-19T08:05:28;7.50;99.90
13205;DHT22;6667;52.634;9.226;2023-10-19T08:07:54;7.50;99.90
13205;DHT22;6667;52.634;9.226;2023-10-19T08:10:22;7.50;99.90
13205;DHT22;6667;52.634;9.226;2023-10-19T08:12:51;7.50;99.90
13205;DHT22;6667;52.634;9.226;2023-10-19T08:15:19;7.60;99.90
13205;DHT22;6667;52.634;9.226;2023-10-19T08:17:47;7.50;99.90
13205;DHT22;6667;52.634;9.226;2023-10-19T08:20:15;7.60;99.90
13205;DHT22;6667;52.634;9.226;2023-10-19T08:22:43;7.60;99.90
13205;DHT22;6667;52.634;9.226;2023-10-19T08:25:12;7.60;99.90
13205;DHT22;6667;52.634;9.226;2023-10-19T08:27:40;7.60;99.90
13205;DHT22;6667;52.634;9.226;2023-10-19T08:30:10;7.70;99.90
13205;DHT22;6667;52.634;9.226;2023-10-19T08:32:39;7.70;99.90
13205;DHT22;6667;52.634;9.226;2023-10-19T08:35:07;7.70;99.90
13205;DHT22;6667;52.634;9.226;2023-10-19T08:37:37;7.70;99.90
13205;DHT22;6667;52.634;9.226;2023-10-19T08:40:06;7.70;99.90
13205;DHT22;6667;52.634;9.226;2023-10-19T08:42:33;7.70;99.90
13205;DHT22;6667;52.634;9.226;2023-10-19T08:45:01;7.80;99.90
13205;DHT22;6667;52.634;9.226;2023-10-19T08:47:28;7.70;99.90
13205;DHT22;6667;52.634;9.226;2023-10-19T08:49:58;7.80;99.90
13205;DHT22;6667;52.634;9.226;2023-10-19T08:52:26;7.80;99.90
13205;DHT22;6667;52.634;9.226;2023-10-19T08:54:53;7.80;99.90
13205;DHT22;6667;52.634;9.226;2023-10-19T08:57:20;7.80;99.90
13205;DHT22;6667;52.634;9.226;2023-10-19T08:59:48;7.80;99.90
13205;DHT22;6667;52.634;9.226;2023-10-19T09:02:15;7.90;99.90
13205;DHT22;6667;52.634;9.226;2023-10-19T09:04:43;7.90;99.90
13205;DHT22;6667;52.634;9.226;2023-10-19T09:07:11;7.90;99.90
13205;DHT22;6667;52.634;9.226;2023-10-19T09:09:39;7.90;99.90
13205;DHT22;6667;52.634;9.226;2023-10-19T09:12:06;7.90;99.90
13205;DHT22;6667;52.634;9.226;2023-10-19T09:14:35;7.90;99.90
13205;DHT22;6667;52.634;9.226;2023-10-19T09:17:06;7.90;99.90
13205;DHT22;6667;52.634;9.226;2023-10-19T09:19:37;7.90;99.90
13205;DHT22;6667;52.634;9.226;2023-10-19T09:22:04;7.90;99.90
13205;DHT22;6667;52.634;9.226;2023-10-19T09:24:34;7.90;99.90
13205;DHT22;6667;52.634;9.226;2023-10-19T09:27:02;8.00;99.90
13205;DHT22;6667;52.634;9.226;2023-10-19T09:29:29;8.00;99.90
13205;DHT22;6667;52.634;9.226;2023-10-19T09:31:58;8.10;99.90
13205;DHT22;6667;52.634;9.226;2023-10-19T09:34:30;8.10;99.90
13205;DHT22;6667;52.634;9.226;2023-10-19T09:36:59;8.00;99.90
13205;DHT22;6667;52.634;9.226;2023-10-19T09:39:27;8.10;99.90
13205;DHT22;6667;52.634;9.226;2023-10-19T09:42:02;8.10;99.90
13205;DHT22;6667;52.634;9.226;2023-10-19T09:44:34;8.20;99.90
13205;DHT22;6667;52.634;9.226;2023-10-19T09:47:10;8.20;99.90
13205;DHT22;6667;52.634;9.226;2023-10-19T09:49:38;8.20;99.90
13205;DHT22;6667;52.634;9.226;2023-10-19T09:52:05;8.20;99.90
13205;DHT22;6667;52.634;9.226;2023-10-19T09:54:52;8.20;99.90
13205;DHT22;6667;52.634;9.226;2023-10-19T09:57:28;8.30;99.90
13205;DHT22;6667;52.634;9.226;2023-10-19T10:00:02;8.30;99.90
13205;DHT22;6667;52.634;9.226;2023-10-19T10:02:34;8.30;99.90
13205;DHT22;6667;52.634;9.226;2023-10-19T10:05:01;8.20;99.90
13205;DHT22;6667;52.634;9.226;2023-10-19T10:07:30;8.20;99.90
13205;DHT22;6667;52.634;9.226;2023-10-19T10:09:56;8.30;99.90
13205;DHT22;6667;52.634;9.226;2023-10-19T10:12:25;8.30;99.90
13205;DHT22;6667;52.634;9.226;2023-10-19T10:14:58;8.30;99.90
13205;DHT22;6667;52.634;9.226;2023-10-19T10:17:27;8.30;99.90
13205;DHT22;6667;52.634;9.226;2023-10-19T10:19:55;8.20;99.90
13205;DHT22;6667;52.634;9.226;2023-10-19T10:22:24;8.20;99.90
13205;DHT22;6667;52.634;9.226;2023-10-19T10:24:54;8.20;99.90
13205;DHT22;6667;52.634;9.226;2023-10-19T10:27:21;8.20;99.90
13205;DHT22;6667;52.634;9.226;2023-10-19T10:29:57;8.20;99.90
13205;DHT22;6667;52.634;9.226;2023-10-19T10:32:44;8.20;99.90
13205;DHT22;6667;52.634;9.226;2023-10-19T10:38:16;8.20;99.90
13205;DHT22;6667;52.634;9.226;2023-10-19T10:40:43;8.20;99.90
13205;DHT22;6667;52.634;9.226;2023-10-19T10:43:10;8.30;99.90
13205;DHT22;6667;52.634;9.226;2023-10-19T10:45:39;8.30;99.90
13205;DHT22;6667;52.634;9.226;2023-10-19T10:48:11;8.30;99.90
13205;DHT22;6667;52.634;9.226;2023-10-19T10:50:38;8.30;99.90
13205;DHT22;6667;52.634;9.226;2023-10-19T10:53:06;8.30;99.90
13205;DHT22;6667;52.634;9.226;2023-10-19T10:55:33;8.30;99.90
13205;DHT22;6667;52.634;9.226;2023-10-19T10:58:00;8.40;99.90
13205;DHT22;6667;52.634;9.226;2023-10-19T11:00:27;8.30;99.90
13205;DHT22;6667;52.634;9.226;2023-10-19T11:03:02;8.40;99.90
13205;DHT22;6667;52.634;9.226;2023-10-19T11:05:30;8.40;99.90
13205;DHT22;6667;52.634;9.226;2023-10-19T11:08:04;8.30;99.90
13205;DHT22;6667;52.634;9.226;2023-10-19T11:10:32;8.40;99.90
13205;DHT22;6667;52.634;9.226;2023-10-19T11:13:02;8.40;99.90
13205;DHT22;6667;52.634;9.226;2023-10-19T11:15:29;8.40;99.90
13205;DHT22;6667;52.634;9.226;2023-10-19T11:17:56;8.50;99.90
13205;DHT22;6667;52.634;9.226;2023-10-19T11:20:25;8.40;99.90
13205;DHT22;6667;52.634;9.226;2023-10-19T11:22:54;8.50;99.90
13205;DHT22;6667;52.634;9.226;2023-10-19T11:25:23;8.40;99.90
13205;DHT22;6667;52.634;9.226;2023-10-19T11:27:53;8.50;99.90
13205;DHT22;6667;52.634;9.226;2023-10-19T11:30:24;8.50;99.90
13205;DHT22;6667;52.634;9.226;2023-10-19T11:32:52;8.40;99.90
13205;DHT22;6667;52.634;9.226;2023-10-19T11:35:24;8.50;99.90
13205;DHT22;6667;52.634;9.226;2023-10-19T11:37:54;8.50;99.90
13205;DHT22;6667;52.634;9.226;2023-10-19T11:40:21;8.50;99.90
13205;DHT22;6667;52.634;9.226;2023-10-19T11:42:48;8.50;99.90
13205;DHT22;6667;52.634;9.226;2023-10-19T11:45:16;8.60;99.90
13205;DHT22;6667;52.634;9.226;2023-10-19T11:47:43;8.60;99.90
13205;DHT22;6667;52.634;9.226;2023-10-19T11:50:10;8.60;99.90
13205;DHT22;6667;52.634;9.226;2023-10-19T11:52:41;8.60;99.90
13205;DHT22;6667;52.634;9.226;2023-10-19T11:55:09;8.60;99.90
13205;DHT22;6667;52.634;9.226;2023-10-19T11:57:36;8.50;99.90
13205;DHT22;6667;52.634;9.226;2023-10-19T12:00:03;8.60;99.90
13205;DHT22;6667;52.634;9.226;2023-10-19T12:02:35;8.60;99.90
13205;DHT22;6667;52.634;9.226;2023-10-19T12:05:03;8.50;99.90
13205;DHT22;6667;52.634;9.226;2023-10-19T12:07:30;8.60;99.90
13205;DHT22;6667;52.634;9.226;2023-10-19T12:09:59;8.60;99.90
13205;DHT22;6667;52.634;9.226;2023-10-19T12:12:26;8.60;99.90
13205;DHT22;6667;52.634;9.226;2023-10-19T12:14:52;8.60;99.90
13205;DHT22;6667;52.634;9.226;2023-10-19T12:17:20;8.60;99.90
13205;DHT22;6667;52.634;9.226;2023-10-19T12:19:49;8.50;99.90
13205;DHT22;6667;52.634;9.226;2023-10-19T12:22:16;8.50;99.90
13205;DHT22;6667;52.634;9.226;2023-10-19T12:24:43;8.50;99.90
13205;DHT22;6667;52.634;9.226;2023-10-19T12:27:11;8.50;99.90
13205;DHT22;6667;52.634;9.226;2023-10-19T12:29:39;8.60;99.90
13205;DHT22;6667;52.634;9.226;2023-10-19T12:32:06;8.50;99.90
13205;DHT22;6667;52.634;9.226;2023-10-19T12:34:33;8.50;99.90
13205;DHT22;6667;52.634;9.226;2023-10-19T12:37:00;8.60;99.90
13205;DHT22;6667;52.634;9.226;2023-10-19T12:39:29;8.50;99.90
13205;DHT22;6667;52.634;9.226;2023-10-19T12:42:05;8.50;99.90
13205;DHT22;6667;52.634;9.226;2023-10-19T12:44:35;8.50;99.90
13205;DHT22;6667;52.634;9.226;2023-10-19T12:47:07;8.50;99.90
13205;DHT22;6667;52.634;9.226;2023-10-19T12:49:36;8.50;99.90
13205;DHT22;6667;52.634;9.226;2023-10-19T12:52:03;8.50;99.90
13205;DHT22;6667;52.634;9.226;2023-10-19T12:54:29;8.40;99.90
13205;DHT22;6667;52.634;9.226;2023-10-19T12:56:56;8.50;99.90
13205;DHT22;6667;52.634;9.226;2023-10-19T12:59:23;8.50;99.90
13205;DHT22;6667;52.634;9.226;2023-10-19T13:01:51;8.50;99.90
13205;DHT22;6667;52.634;9.226;2023-10-19T13:04:23;8.50;99.90
13205;DHT22;6667;52.634;9.226;2023-10-19T13:06:50;8.40;99.90
13205;DHT22;6667;52.634;9.226;2023-10-19T13:09:17;8.40;99.90
13205;DHT22;6667;52.634;9.226;2023-10-19T13:11:47;8.50;99.90
13205;DHT22;6667;52.634;9.226;2023-10-19T13:14:17;8.50;99.90
13205;DHT22;6667;52.634;9.226;2023-10-19T13:16:44;8.40;99.90
13205;DHT22;6667;52.634;9.226;2023-10-19T13:19:12;8.40;99.90
13205;DHT22;6667;52.634;9.226;2023-10-19T13:21:41;8.40;99.90
13205;DHT22;6667;52.634;9.226;2023-10-19T13:24:09;8.40;99.90
13205;DHT22;6667;52.634;9.226;2023-10-19T13:26:36;8.40;99.90
13205;DHT22;6667;52.634;9.226;2023-10-19T13:29:04;8.40;99.90
13205;DHT22;6667;52.634;9.226;2023-10-19T13:31:30;8.30;99.90
13205;DHT22;6667;52.634;9.226;2023-10-19T13:33:57;8.30;99.90
13205;DHT22;6667;52.634;9.226;2023-10-19T13:36:26;8.40;99.90
13205;DHT22;6667;52.634;9.226;2023-10-19T13:38:53;8.40;99.90
13205;DHT22;6667;52.634;9.226;2023-10-19T13:41:20;8.40;99.90
13205;DHT22;6667;52.634;9.226;2023-10-19T13:43:47;8.40;99.90
13205;DHT22;6667;52.634;9.226;2023-10-19T13:46:14;8.40;99.90
13205;DHT22;6667;52.634;9.226;2023-10-19T13:48:41;8.40;99.90
13205;DHT22;6667;52.634;9.226;2023-10-19T13:51:08;8.40;99.90
13205;DHT22;6667;52.634;9.226;2023-10-19T13:53:40;8.30;99.90
13205;DHT22;6667;52.634;9.226;2023-10-19T13:56:07;8.40;99.90
13205;DHT22;6667;52.634;9.226;2023-10-19T13:58:35;8.40;99.90
13205;DHT22;6667;52.634;9.226;2023-10-19T14:01:02;8.40;99.90
13205;DHT22;6667;52.634;9.226;2023-10-19T14:03:29;8.30;99.90
13205;DHT22;6667;52.634;9.226;2023-10-19T14:05:56;8.30;99.90
13205;DHT22;6667;52.634;9.226;2023-10-19T14:08:23;8.30;99.90
13205;DHT22;6667;52.634;9.226;2023-10-19T14:10:51;8.30;99.90
13205;DHT22;6667;52.634;9.226;2023-10-19T14:13:17;8.40;99.90
13205;DHT22;6667;52.634;9.226;2023-10-19T14:15:45;8.40;99.90
13205;DHT22;6667;52.634;9.226;2023-10-19T14:18:11;8.30;99.90
13205;DHT22;6667;52.634;9.226;2023-10-19T14:20:38;8.30;99.90
13205;DHT22;6667;52.634;9.226;2023-10-19T14:23:06;8.30;99.90
13205;DHT22;6667;52.634;9.226;2023-10-19T14:25:36;8.30;99.90
13205;DHT22;6667;52.634;9.226;2023-10-19T14:28:05;8.30;99.90
13205;DHT22;6667;52.634;9.226;2023-10-19T14:30:33;8.30;99.90
13205;DHT22;6667;52.634;9.226;2023-10-19T14:33:00;8.30;99.90
13205;DHT22;6667;52.634;9.226;2023-10-19T14:35:27;8.30;99.90
13205;DHT22;6667;52.634;9.226;2023-10-19T14:37:55;8.30;99.90
13205;DHT22;6667;52.634;9.226;2023-10-19T14:40:24;8.30;99.90
13205;DHT22;6667;52.634;9.226;2023-10-19T14:42:52;8.40;99.90
13205;DHT22;6667;52.634;9.226;2023-10-19T14:45:24;8.40;99.90
13205;DHT22;6667;52.634;9.226;2023-10-19T14:47:55;8.40;99.90
13205;DHT22;6667;52.634;9.226;2023-10-19T14:50:23;8.40;99.90
13205;DHT22;6667;52.634;9.226;2023-10-19T14:52:53;8.40;99.90
13205;DHT22;6667;52.634;9.226;2023-10-19T14:55:20;8.40;99.90
13205;DHT22;6667;52.634;9.226;2023-10-19T14:57:48;8.30;99.90
13205;DHT22;6667;52.634;9.226;2023-10-19T15:00:16;8.40;99.90
13205;DHT22;6667;52.634;9.226;2023-10-19T15:02:49;8.40;99.90
13205;DHT22;6667;52.634;9.226;2023-10-19T15:05:16;8.40;99.90
13205;DHT22;6667;52.634;9.226;2023-10-19T15:07:45;8.40;99.90
13205;DHT22;6667;52.634;9.226;2023-10-19T15:10:14;8.40;99.90
13205;DHT22;6667;52.634;9.226;2023-10-19T15:12:42;8.40;99.90
13205;DHT22;6667;52.634;9.226;2023-10-19T15:15:10;8.30;99.90
13205;DHT22;6667;52.634;9.226;2023-10-19T15:17:37;8.30;99.90
13205;DHT22;6667;52.634;9.226;2023-10-19T15:20:07;8.30;99.90
13205;DHT22;6667;52.634;9.226;2023-10-19T15:22:35;8.30;99.90
13205;DHT22;6667;52.634;9.226;2023-10-19T15:25:02;8.30;99.90
13205;DHT22;6667;52.634;9.226;2023-10-19T15:27:29;8.30;99.90
13205;DHT22;6667;52.634;9.226;2023-10-19T15:29:56;8.30;99.90
13205;DHT22;6667;52.634;9.226;2023-10-19T15:32:23;8.30;99.90
13205;DHT22;6667;52.634;9.226;2023-10-19T15:34:51;8.30;99.90
13205;DHT22;6667;52.634;9.226;2023-10-19T15:37:19;8.30;99.90
13205;DHT22;6667;52.634;9.226;2023-10-19T15:39:48;8.30;99.90
13205;DHT22;6667;52.634;9.226;2023-10-19T15:42:15;8.30;99.90
13205;DHT22;6667;52.634;9.226;2023-10-19T15:44:43;8.30;99.90
13205;DHT22;6667;52.634;9.226;2023-10-19T15:47:11;8.30;99.90
13205;DHT22;6667;52.634;9.226;2023-10-19T15:49:46;8.20;99.90
13205;DHT22;6667;52.634;9.226;2023-10-19T15:52:13;8.20;99.90
13205;DHT22;6667;52.634;9.226;2023-10-19T15:54:41;8.20;99.90
13205;DHT22;6667;52.634;9.226;2023-10-19T15:57:08;8.20;99.90
13205;DHT22;6667;52.634;9.226;2023-10-19T15:59:34;8.20;99.90
13205;DHT22;6667;52.634;9.226;2023-10-19T16:02:01;8.20;99.90
13205;DHT22;6667;52.634;9.226;2023-10-19T16:04:28;8.20;99.90
13205;DHT22;6667;52.634;9.226;2023-10-19T16:06:54;8.20;99.90
13205;DHT22;6667;52.634;9.226;2023-10-19T16:09:21;8.20;99.90
13205;DHT22;6667;52.634;9.226;2023-10-19T16:11:49;8.20;99.90
13205;DHT22;6667;52.634;9.226;2023-10-19T16:14:17;8.20;99.90
13205;DHT22;6667;52.634;9.226;2023-10-19T16:16:45;8.20;99.90
13205;DHT22;6667;52.634;9.226;2023-10-19T16:19:13;8.10;99.90
13205;DHT22;6667;52.634;9.226;2023-10-19T16:21:40;8.10;99.90
13205;DHT22;6667;52.634;9.226;2023-10-19T16:24:07;8.00;99.90
13205;DHT22;6667;52.634;9.226;2023-10-19T16:26:33;8.00;99.90
13205;DHT22;6667;52.634;9.226;2023-10-19T16:29:02;8.00;99.90
13205;DHT22;6667;52.634;9.226;2023-10-19T16:31:30;8.00;99.90
13205;DHT22;6667;52.634;9.226;2023-10-19T16:33:57;8.00;99.90
13205;DHT22;6667;52.634;9.226;2023-10-19T16:36:24;8.00;99.90
13205;DHT22;6667;52.634;9.226;2023-10-19T16:38:51;8.00;99.90
13205;DHT22;6667;52.634;9.226;2023-10-19T16:41:18;8.00;99.90
13205;DHT22;6667;52.634;9.226;2023-10-19T16:43:44;7.90;99.90
13205;DHT22;6667;52.634;9.226;2023-10-19T16:46:13;7.90;99.90
13205;DHT22;6667;52.634;9.226;2023-10-19T16:48:39;7.90;99.90
13205;DHT22;6667;52.634;9.226;2023-10-19T16:51:06;7.90;99.90
13205;DHT22;6667;52.634;9.226;2023-10-19T16:53:33;7.90;99.90
13205;DHT22;6667;52.634;9.226;2023-10-19T16:56:00;7.90;99.90
13205;DHT22;6667;52.634;9.226;2023-10-19T16:58:27;7.90;99.90
13205;DHT22;6667;52.634;9.226;2023-10-19T17:00:53;7.90;99.90
13205;DHT22;6667;52.634;9.226;2023-10-19T17:03:21;7.90;99.90
13205;DHT22;6667;52.634;9.226;2023-10-19T17:05:48;7.90;99.90
13205;DHT22;6667;52.634;9.226;2023-10-19T17:08:17;7.80;99.90
13205;DHT22;6667;52.634;9.226;2023-10-19T17:10:44;7.80;99.90
13205;DHT22;6667;52.634;9.226;2023-10-19T17:13:12;7.80;99.90
13205;DHT22;6667;52.634;9.226;2023-10-19T17:15:38;7.80;99.90
13205;DHT22;6667;52.634;9.226;2023-10-19T17:18:06;7.90;99.90
13205;DHT22;6667;52.634;9.226;2023-10-19T17:20:34;7.90;99.90
13205;DHT22;6667;52.634;9.226;2023-10-19T17:23:01;7.80;99.90
13205;DHT22;6667;52.634;9.226;2023-10-19T17:25:30;7.90;99.90
13205;DHT22;6667;52.634;9.226;2023-10-19T17:27:57;7.80;99.90
13205;DHT22;6667;52.634;9.226;2023-10-19T17:30:24;7.80;99.90
13205;DHT22;6667;52.634;9.226;2023-10-19T17:32:51;7.80;99.90
13205;DHT22;6667;52.634;9.226;2023-10-19T17:35:18;7.80;99.90
13205;DHT22;6667;52.634;9.226;2023-10-19T17:37:48;7.80;99.90
13205;DHT22;6667;52.634;9.226;2023-10-19T17:40:15;7.90;99.90
13205;DHT22;6667;52.634;9.226;2023-10-19T17:42:42;7.80;99.90
13205;DHT22;6667;52.634;9.226;2023-10-19T17:45:09;7.80;99.90
13205;DHT22;6667;52.634;9.226;2023-10-19T17:47:36;7.70;99.90
13205;DHT22;6667;52.634;9.226;2023-10-19T17:50:03;7.80;99.90
13205;DHT22;6667;52.634;9.226;2023-10-19T17:52:32;7.90;99.90
13205;DHT22;6667;52.634;9.226;2023-10-19T17:55:00;7.90;99.90
13205;DHT22;6667;52.634;9.226;2023-10-19T17:57:27;7.80;99.90
13205;DHT22;6667;52.634;9.226;2023-10-19T17:59:53;7.80;99.90
13205;DHT22;6667;52.634;9.226;2023-10-19T18:02:20;7.80;99.90
13205;DHT22;6667;52.634;9.226;2023-10-19T18:04:47;7.80;99.90
13205;DHT22;6667;52.634;9.226;2023-10-19T18:07:15;7.80;99.90
13205;DHT22;6667;52.634;9.226;2023-10-19T18:09:43;7.80;99.90
13205;DHT22;6667;52.634;9.226;2023-10-19T18:12:11;7.80;99.90
13205;DHT22;6667;52.634;9.226;2023-10-19T18:14:38;7.70;99.90
13205;DHT22;6667;52.634;9.226;2023-10-19T18:17:05;7.70;99.90
13205;DHT22;6667;52.634;9.226;2023-10-19T18:19:34;7.80;99.90
13205;DHT22;6667;52.634;9.226;2023-10-19T18:22:01;7.70;99.90
13205;DHT22;6667;52.634;9.226;2023-10-19T18:24:28;7.70;99.90
13205;DHT22;6667;52.634;9.226;2023-10-19T18:26:57;7.70;99.90
13205;DHT22;6667;52.634;9.226;2023-10-19T18:29:26;7.60;99.90
13205;DHT22;6667;52.634;9.226;2023-10-19T18:31:53;7.70;99.90
13205;DHT22;6667;52.634;9.226;2023-10-19T18:34:20;7.60;99.90
13205;DHT22;6667;52.634;9.226;2023-10-19T18:36:47;7.60;99.90
13205;DHT22;6667;52.634;9.226;2023-10-19T18:39:14;7.60;99.90
13205;DHT22;6667;52.634;9.226;2023-10-19T18:41:43;7.60;99.90
13205;DHT22;6667;52.634;9.226;2023-10-19T18:44:10;7.60;99.90
13205;DHT22;6667;52.634;9.226;2023-10-19T18:46:39;7.60;99.90
13205;DHT22;6667;52.634;9.226;2023-10-19T18:49:06;7.70;99.90
13205;DHT22;6667;52.634;9.226;2023-10-19T18:51:34;7.60;99.90
13205;DHT22;6667;52.634;9.226;2023-10-19T18:54:01;7.60;99.90
13205;DHT22;6667;52.634;9.226;2023-10-19T18:56:29;7.60;99.90
13205;DHT22;6667;52.634;9.226;2023-10-19T18:58:56;7.60;99.90
13205;DHT22;6667;52.634;9.226;2023-10-19T19:01:25;7.60;99.90
13205;DHT22;6667;52.634;9.226;2023-10-19T19:03:54;7.50;99.90
13205;DHT22;6667;52.634;9.226;2023-10-19T19:06:21;7.60;99.90
13205;DHT22;6667;52.634;9.226;2023-10-19T19:08:48;7.60;99.90
13205;DHT22;6667;52.634;9.226;2023-10-19T19:11:16;7.60;99.90
13205;DHT22;6667;52.634;9.226;2023-10-19T19:13:44;7.60;99.90
13205;DHT22;6667;52.634;9.226;2023-10-19T19:16:11;7.60;99.90
13205;DHT22;6667;52.634;9.226;2023-10-19T19:18:38;7.60;99.90
13205;DHT22;6667;52.634;9.226;2023-10-19T19:21:07;7.60;99.90
13205;DHT22;6667;52.634;9.226;2023-10-19T19:23:34;7.60;99.90
13205;DHT22;6667;52.634;9.226;2023-10-19T19:26:01;7.60;99.90
13205;DHT22;6667;52.634;9.226;2023-10-19T19:28:28;7.60;99.90
13205;DHT22;6667;52.634;9.226;2023-10-19T19:30:57;7.60;99.90
13205;DHT22;6667;52.634;9.226;2023-10-19T19:33:24;7.60;99.90
13205;DHT22;6667;52.634;9.226;2023-10-19T19:35:50;7.60;99.90
13205;DHT22;6667;52.634;9.226;2023-10-19T19:38:18;7.60;99.90
13205;DHT22;6667;52.634;9.226;2023-10-19T19:40:46;7.60;99.90
13205;DHT22;6667;52.634;9.226;2023-10-19T19:43:13;7.60;99.90
13205;DHT22;6667;52.634;9.226;2023-10-19T19:45:40;7.60;99.90
13205;DHT22;6667;52.634;9.226;2023-10-19T19:48:08;7.60;99.90
13205;DHT22;6667;52.634;9.226;2023-10-19T19:50:36;7.60;99.90
13205;DHT22;6667;52.634;9.226;2023-10-19T19:53:05;7.60;99.90
13205;DHT22;6667;52.634;9.226;2023-10-19T19:55:36;7.60;99.90
13205;DHT22;6667;52.634;9.226;2023-10-19T19:58:03;7.70;99.90
13205;DHT22;6667;52.634;9.226;2023-10-19T20:00:31;7.60;99.90
13205;DHT22;6667;52.634;9.226;2023-10-19T20:02:58;7.60;99.90
13205;DHT22;6667;52.634;9.226;2023-10-19T20:05:26;7.70;99.90
13205;DHT22;6667;52.634;9.226;2023-10-19T20:07:55;7.70;99.90
13205;DHT22;6667;52.634;9.226;2023-10-19T20:10:22;7.70;99.90
13205;DHT22;6667;52.634;9.226;2023-10-19T20:12:51;7.70;99.90
13205;DHT22;6667;52.634;9.226;2023-10-19T20:15:18;7.70;99.90
13205;DHT22;6667;52.634;9.226;2023-10-19T20:17:44;7.70;99.90
13205;DHT22;6667;52.634;9.226;2023-10-19T20:20:11;7.70;99.90
13205;DHT22;6667;52.634;9.226;2023-10-19T20:22:38;7.70;99.90
13205;DHT22;6667;52.634;9.226;2023-10-19T20:25:06;7.60;99.90
13205;DHT22;6667;52.634;9.226;2023-10-19T20:27:37;7.70;99.90
13205;DHT22;6667;52.634;9.226;2023-10-19T20:30:07;7.70;99.90
13205;DHT22;6667;52.634;9.226;2023-10-19T20:32:37;7.70;99.90
13205;DHT22;6667;52.634;9.226;2023-10-19T20:35:05;7.70;99.90
13205;DHT22;6667;52.634;9.226;2023-10-19T20:37:33;7.70;99.90
13205;DHT22;6667;52.634;9.226;2023-10-19T20:39:59;7.80;99.90
13205;DHT22;6667;52.634;9.226;2023-10-19T20:42:30;7.70;99.90
13205;DHT22;6667;52.634;9.226;2023-10-19T20:44:57;7.70;99.90
13205;DHT22;6667;52.634;9.226;2023-10-19T20:47:25;7.80;99.90
13205;DHT22;6667;52.634;9.226;2023-10-19T20:49:52;7.70;99.90
13205;DHT22;6667;52.634;9.226;2023-10-19T20:52:19;7.70;99.90
13205;DHT22;6667;52.634;9.226;2023-10-19T20:54:46;7.80;99.90
13205;DHT22;6667;52.634;9.226;2023-10-19T20:57:12;7.70;99.90
13205;DHT22;6667;52.634;9.226;2023-10-19T20:59:39;7.70;99.90
13205;DHT22;6667;52.634;9.226;2023-10-19T21:02:06;7.70;99.90
13205;DHT22;6667;52.634;9.226;2023-10-19T21:04:35;7.80;99.90
13205;DHT22;6667;52.634;9.226;2023-10-19T21:07:02;7.70;99.90
13205;DHT22;6667;52.634;9.226;2023-10-19T21:09:29;7.80;99.90
13205;DHT22;6667;52.634;9.226;2023-10-19T21:11:56;7.80;99.90
13205;DHT22;6667;52.634;9.226;2023-10-19T21:14:23;7.70;99.90
13205;DHT22;6667;52.634;9.226;2023-10-19T21:16:50;7.80;99.90
13205;DHT22;6667;52.634;9.226;2023-10-19T21:19:16;7.80;99.90
13205;DHT22;6667;52.634;9.226;2023-10-19T21:21:45;7.70;99.90
13205;DHT22;6667;52.634;9.226;2023-10-19T21:24:11;7.70;99.90
13205;DHT22;6667;52.634;9.226;2023-10-19T21:26:38;7.70;99.90
13205;DHT22;6667;52.634;9.226;2023-10-19T21:29:05;7.70;99.90
13205;DHT22;6667;52.634;9.226;2023-10-19T21:31:32;7.80;99.90
13205;DHT22;6667;52.634;9.226;2023-10-19T21:33:59;7.70;99.90
13205;DHT22;6667;52.634;9.226;2023-10-19T21:36:26;7.80;99.90
13205;DHT22;6667;52.634;9.226;2023-10-19T21:38:55;7.70;99.90
13205;DHT22;6667;52.634;9.226;2023-10-19T21:41:21;7.70;99.90
13205;DHT22;6667;52.634;9.226;2023-10-19T21:43:50;7.80;99.90
13205;DHT22;6667;52.634;9.226;2023-10-19T21:46:16;7.80;99.90
